Time;durP1;ratioP1;P1;durP2;ratioP2;P2;SDS_P1;SDS_P2;PMS_P1;PMS_P2;Temp;Humidity;BMP_temperature;BMP_pressure;BME280_temperature;BME280_humidity;BME280_pressure;Samples;Min_cycle;Max_cycle;Signal;HPM_P1;HPM_P2
2022/06/20 00:00:43;;;;;;;5.72;1.35;;;;;;;18.85;49.02;101002.22;1736018;82;25793;-56
2022/06/20 00:03:24;;;;;;;2.55;1.20;;;;;;;18.91;48.97;101001.47;1720452;82;26457;-55
2022/06/20 00:05:52;;;;;;;11.08;2.12;;;;;;;18.91;49.10;100998.24;1741918;81;28253;-56
2022/06/20 00:08:19;;;;;;;10.72;1.77;;;;;;;18.98;49.02;100995.63;1738874;81;25834;-56
2022/06/20 00:10:47;;;;;;;7.35;1.92;;;;;;;18.99;48.89;100991.04;1741104;81;25806;-55
2022/06/20 00:13:22;;;;;;;7.75;1.62;;;;;;;19.02;49.08;100996.09;1734669;81;25797;-57
2022/06/20 00:15:52;;;;;;;5.25;1.57;;;;;;;19.02;49.01;100994.23;1733169;81;26487;-56
2022/06/20 00:18:20;;;;;;;16.02;1.50;;;;;;;19.03;49.02;100994.57;1742482;82;27504;-56
2022/06/20 00:20:46;;;;;;;11.57;1.57;;;;;;;19.05;49.03;100987.02;1735027;82;26227;-56
2022/06/20 00:23:13;;;;;;;11.68;1.72;;;;;;;19.05;49.09;100992.48;1738251;81;25823;-56
2022/06/20 00:25:41;;;;;;;8.00;1.45;;;;;;;19.03;49.28;100997.30;1745093;82;25772;-55
2022/06/20 00:28:10;;;;;;;2.77;1.40;;;;;;;18.98;49.55;100994.27;1734005;81;25807;-55
2022/06/20 00:30:38;;;;;;;4.80;1.20;;;;;;;18.90;49.97;100988.87;1744855;81;28267;-56
2022/06/20 00:33:06;;;;;;;6.65;1.60;;;;;;;18.84;50.13;100986.89;1735379;82;25510;-56
2022/06/20 00:35:34;;;;;;;5.67;2.00;;;;;;;18.80;50.55;100986.92;1742642;81;26226;-55
2022/06/20 00:38:04;;;;;;;11.50;1.75;;;;;;;18.77;50.70;100972.66;1742535;81;25731;-56
2022/06/20 00:40:37;;;;;;;9.73;2.10;;;;;;;18.75;51.12;100979.30;1745522;81;25821;-56
2022/06/20 00:43:07;;;;;;;5.92;1.90;;;;;;;18.73;51.55;100980.03;1743982;81;27574;-55
2022/06/20 00:45:42;;;;;;;13.20;1.85;;;;;;;18.68;51.52;100978.35;1753695;81;25770;-56
2022/06/20 00:48:14;;;;;;;11.28;1.72;;;;;;;18.60;52.18;100982.02;1738150;81;25759;-56
2022/06/20 00:50:41;;;;;;;4.17;1.30;;;;;;;18.56;52.26;100980.16;1740752;82;26301;-56
2022/06/20 00:53:44;;;;;;;5.33;1.17;;;;;;;18.52;52.96;100983.42;1708140;81;26167;-56
2022/06/20 00:56:17;;;;;;;7.47;1.70;;;;;;;18.44;52.54;100980.28;1741078;81;26895;-56
2022/06/20 00:59:01;;;;;;;1.90;1.37;;;;;;;18.36;53.09;100971.65;1741178;82;26502;-56
2022/06/20 01:01:32;;;;;;;7.67;1.67;;;;;;;18.27;53.17;100971.38;1740801;82;25760;-56
2022/06/20 01:04:04;;;;;;;4.12;1.62;;;;;;;18.18;53.54;100971.97;1741200;82;26150;-56
2022/06/20 01:06:35;;;;;;;7.35;1.60;;;;;;;18.10;53.71;100970.14;1740628;82;25827;-56
2022/06/20 01:09:09;;;;;;;16.40;1.70;;;;;;;18.07;54.62;100962.86;1740660;82;27481;-56
2022/06/20 01:11:47;;;;;;;3.58;1.52;;;;;;;17.98;55.04;100961.56;1728475;81;26149;-56
2022/06/20 01:14:25;;;;;;;2.87;1.25;;;;;;;17.93;55.17;100965.28;1729589;82;25771;-56
2022/06/20 01:16:57;;;;;;;1.82;1.20;;;;;;;17.92;55.16;100969.55;1739079;81;26289;-56
2022/06/20 01:20:03;;;;;;;6.83;1.87;;;;;;;17.92;55.22;100960.03;1742676;82;25801;-55
2022/06/20 01:22:45;;;;;;;4.50;1.40;;;;;;;17.88;55.14;100962.27;1748882;81;27500;-55
2022/06/20 01:25:23;;;;;;;11.33;2.10;;;;;;;17.82;55.60;100965.19;1750611;81;25450;-55
2022/06/20 01:27:52;;;;;;;4.15;1.72;;;;;;;17.76;55.46;100970.00;1743973;81;25636;-56
2022/06/20 01:30:23;;;;;;;5.47;1.50;;;;;;;17.74;55.53;100964.41;1744479;81;25761;-56
2022/06/20 01:32:50;;;;;;;3.70;1.98;;;;;;;17.73;55.80;100970.88;1745367;81;26125;-56
2022/06/20 01:37:47;;;;;;;10.78;1.82;;;;;;;17.63;56.98;100981.95;1712330;81;25909;-55
2022/06/20 01:40:15;;;;;;;11.38;1.90;;;;;;;17.57;56.38;100978.59;1740867;81;25759;-56
2022/06/20 01:42:44;;;;;;;7.17;1.45;;;;;;;17.54;56.99;100975.72;1736623;82;25829;-56
2022/06/20 01:48:14;;;;;;;6.47;1.60;;;;;;;17.48;57.12;100975.91;1776208;80;28507;-55
2022/06/20 01:50:45;;;;;;;4.53;1.67;;;;;;;17.46;57.22;100972.52;1759656;80;25885;-56
2022/06/20 01:53:15;;;;;;;3.45;1.50;;;;;;;17.47;57.09;100972.86;1762733;80;25514;-56
2022/06/20 01:55:46;;;;;;;16.93;3.02;;;;;;;17.50;57.39;100971.16;1739712;81;26445;-55
2022/06/20 01:58:25;;;;;;;10.18;1.95;;;;;;;17.50;57.45;100971.16;1765721;80;25732;-56
2022/06/20 02:00:52;;;;;;;5.28;1.65;;;;;;;17.49;57.70;100971.31;1765681;80;27644;-56
2022/06/20 02:03:21;;;;;;;4.40;1.77;;;;;;;17.46;57.43;100976.59;1753885;80;25734;-56
2022/06/20 02:05:53;;;;;;;7.10;4.15;;;;;;;17.39;57.68;100978.33;1764441;80;25863;-56
2022/06/20 02:08:22;;;;;;;10.60;1.98;;;;;;;17.35;57.60;100983.77;1771411;80;25793;-57
2022/06/20 02:11:13;;;;;;;5.28;1.90;;;;;;;17.34;57.83;100981.58;1766790;79;25783;-56
2022/06/20 02:13:44;;;;;;;4.35;1.67;;;;;;;17.36;57.88;100981.39;1771965;80;27574;-56
2022/06/20 02:16:15;;;;;;;9.10;2.33;;;;;;;17.38;57.68;100986.15;1765269;80;25741;-56
2022/06/20 02:18:45;;;;;;;5.87;1.70;;;;;;;17.42;57.87;100989.36;1766409;80;25925;-57
2022/06/20 02:21:20;;;;;;;6.65;1.47;;;;;;;17.45;57.73;100991.22;1766275;80;25802;-55
2022/06/20 02:23:51;;;;;;;8.30;1.90;;;;;;;17.48;57.81;100988.16;1764457;80;25730;-57
2022/06/20 02:26:20;;;;;;;7.35;1.72;;;;;;;17.51;57.89;100989.17;1760128;80;27332;-56
2022/06/20 02:29:26;;;;;;;2.12;1.60;;;;;;;17.55;57.73;100986.08;1757806;80;25822;-56
2022/06/20 02:32:05;;;;;;;12.00;1.92;;;;;;;17.56;58.06;100994.08;1776533;80;25737;-56
2022/06/20 02:34:32;;;;;;;12.05;2.50;;;;;;;17.52;57.84;100990.88;1771001;80;26310;-56
2022/06/20 02:37:04;;;;;;;7.87;2.40;;;;;;;17.49;57.76;100991.70;1759183;80;25833;-56
2022/06/20 02:39:35;;;;;;;12.05;2.30;;;;;;;17.46;57.82;100988.00;1771249;80;27528;-56
2022/06/20 02:42:07;;;;;;;8.58;2.37;;;;;;;17.35;57.71;100991.93;1735982;81;25751;-56
2022/06/20 02:44:34;;;;;;;12.73;2.52;;;;;;;17.31;57.99;100983.80;1690164;83;25710;-56
2022/06/20 02:47:05;;;;;;;6.53;2.10;;;;;;;17.29;57.81;100981.77;1741706;82;25834;-56
2022/06/20 02:49:34;;;;;;;10.80;2.00;;;;;;;17.27;58.13;100981.95;1736381;81;25518;-56
2022/06/20 02:52:05;;;;;;;4.90;2.30;;;;;;;17.26;58.13;100981.61;1741948;80;27554;-55
2022/06/20 02:54:35;;;;;;;12.85;2.40;;;;;;;17.27;58.38;100986.52;1748213;81;26437;-56
2022/06/20 02:57:12;;;;;;;7.65;3.12;;;;;;;17.27;58.45;100989.24;1745750;81;25818;-57
2022/06/20 02:59:50;;;;;;;13.80;2.52;;;;;;;17.27;58.53;100995.55;1752500;80;26555;-56
2022/06/20 03:02:22;;;;;;;13.58;2.58;;;;;;;17.25;59.27;100989.42;1741975;81;25715;-56
2022/06/20 03:04:50;;;;;;;13.58;2.50;;;;;;;17.23;59.52;100993.35;1746714;81;27437;-56
2022/06/20 03:07:25;;;;;;;8.80;2.10;;;;;;;17.19;59.22;100990.14;1741569;81;25811;-56
2022/06/20 03:09:57;;;;;;;9.68;2.92;;;;;;;17.18;59.49;100983.00;1741151;81;25795;-57
2022/06/20 03:12:24;;;;;;;12.05;2.75;;;;;;;17.19;59.34;100986.06;1740913;81;25771;-56
2022/06/20 03:14:57;;;;;;;10.48;2.45;;;;;;;17.20;60.73;100988.59;1740914;82;25742;-56
2022/06/20 03:17:24;;;;;;;10.98;2.60;;;;;;;17.20;59.89;100987.23;1748966;81;27400;-56
2022/06/20 03:19:58;;;;;;;15.50;3.25;;;;;;;17.21;60.29;100983.50;1745130;81;25791;-56
2022/06/20 03:22:33;;;;;;;15.65;2.72;;;;;;;17.26;60.39;100984.86;1743916;81;25692;-56
2022/06/20 03:25:00;;;;;;;9.28;2.80;;;;;;;17.30;60.31;100980.75;1756918;80;26445;-56
2022/06/20 03:27:31;;;;;;;19.50;3.20;;;;;;;17.34;60.29;100984.83;1775602;80;25489;-56
2022/06/20 03:30:03;;;;;;;25.75;4.08;;;;;;;17.39;61.74;100976.97;1766072;80;27544;-57
2022/06/20 03:32:30;;;;;;;63.23;6.65;;;;;;;17.41;61.26;100975.42;1784124;80;25745;-56
2022/06/20 03:34:57;;;;;;;10.95;2.70;;;;;;;17.47;61.12;100972.86;1781000;80;25785;-56
2022/06/20 03:37:24;;;;;;;24.25;3.20;;;;;;;17.57;61.03;100975.87;1781215;80;25781;-57
2022/06/20 03:39:51;;;;;;;10.72;3.08;;;;;;;17.65;61.36;100971.75;1770797;80;27257;-56
2022/06/20 03:42:18;;;;;;;9.83;3.05;;;;;;;17.77;62.12;100974.91;1765580;80;27481;-56
2022/06/20 03:44:50;;;;;;;17.15;3.12;;;;;;;17.83;61.80;100963.33;1758457;80;25728;-56
2022/06/20 03:47:28;;;;;;;24.32;3.47;;;;;;;17.93;61.47;100964.45;1743947;80;25773;-56
2022/06/20 03:50:03;;;;;;;13.10;3.12;;;;;;;18.01;61.45;100960.87;1734581;81;26187;-56
2022/06/20 03:52:35;;;;;;;19.10;3.65;;;;;;;18.12;61.59;100957.20;1743011;81;25818;-56
2022/06/20 03:55:19;;;;;;;9.38;2.70;;;;;;;18.24;61.51;100954.90;1741436;81;27478;-56
2022/06/20 03:57:55;;;;;;;8.68;3.00;;;;;;;18.35;61.30;100953.61;1740543;81;25732;-56
2022/06/20 04:00:45;;;;;;;14.63;4.20;;;;;;;18.47;61.05;100948.56;1744335;81;25767;-56
2022/06/20 04:03:36;;;;;;;13.10;2.92;;;;;;;18.57;60.80;100947.80;1744080;81;25712;-56
2022/06/20 04:06:19;;;;;;;4.17;2.20;;;;;;;18.68;60.71;100947.02;1735638;82;25837;-57
2022/06/20 04:11:45;;;;;;;5.90;2.70;;;;;;;18.86;60.34;100953.49;1752687;81;25727;-56
2022/06/20 04:14:46;;;;;;;9.68;2.55;;;;;;;18.93;60.21;100945.75;1748101;80;25457;-57
2022/06/20 04:20:39;;;;;;;17.65;2.67;;;;;;;19.03;59.90;100940.04;1740981;82;25632;-56
2022/06/20 04:23:11;;;;;;;23.10;3.10;;;;;;;19.12;59.86;100943.50;1722553;81;28201;-56
2022/06/20 04:25:52;;;;;;;9.70;2.45;;;;;;;19.21;59.64;100942.91;1720768;81;25948;-56
2022/06/20 04:28:39;;;;;;;18.12;2.70;;;;;;;19.26;59.61;100943.16;1719664;83;25688;-56
2022/06/20 04:31:11;;;;;;;10.45;2.45;;;;;;;19.29;59.53;100948.25;1719782;83;26157;-56
2022/06/20 04:34:21;;;;;;;11.00;2.70;;;;;;;19.31;59.28;100944.83;1721173;81;25477;-55
2022/06/20 04:37:05;;;;;;;8.60;3.12;;;;;;;19.37;59.52;100945.42;1724794;81;27647;-56
2022/06/20 04:39:46;;;;;;;7.75;3.10;;;;;;;19.45;59.25;100938.16;1722803;81;26389;-56
2022/06/20 04:42:19;;;;;;;13.45;3.67;;;;;;;19.50;59.20;100937.92;1747856;81;25481;-57
2022/06/20 04:45:00;;;;;;;18.27;3.30;;;;;;;19.54;59.25;100938.37;1732594;81;25877;-56
2022/06/20 04:47:56;;;;;;;19.12;3.25;;;;;;;19.59;59.09;100940.00;1706264;81;25859;-56
2022/06/20 04:50:28;;;;;;;23.22;3.65;;;;;;;19.62;59.02;100938.26;1689608;83;28349;-57
2022/06/20 04:52:59;;;;;;;23.47;6.03;;;;;;;19.68;58.79;100938.84;1690596;83;25887;-57
2022/06/20 04:55:28;;;;;;;27.95;3.42;;;;;;;19.73;58.61;100934.70;1688788;83;25534;-56
2022/06/20 04:57:59;;;;;;;14.30;2.98;;;;;;;19.77;58.71;100937.36;1690098;84;25813;-57
2022/06/20 05:00:42;;;;;;;10.20;3.30;;;;;;;19.82;58.58;100938.48;1687588;84;25536;-57
2022/06/20 05:03:14;;;;;;;11.28;2.50;;;;;;;19.89;58.57;100935.03;1699267;82;27579;-56
2022/06/20 05:05:46;;;;;;;9.33;2.62;;;;;;;19.93;58.53;100936.31;1691221;83;25742;-56
2022/06/20 05:08:17;;;;;;;20.90;6.67;;;;;;;20.00;59.04;100932.62;1722467;83;26256;-56
2022/06/20 05:10:52;;;;;;;22.15;4.47;;;;;;;20.05;58.55;100927.08;1658319;84;26153;-57
2022/06/20 05:13:42;;;;;;;15.68;2.70;;;;;;;20.12;58.35;100923.91;1713860;83;25827;-57
2022/06/20 05:16:17;;;;;;;17.67;4.35;;;;;;;20.20;58.68;100925.64;1723506;80;27508;-56
2022/06/20 05:18:52;;;;;;;18.25;6.33;;;;;;;20.25;58.15;100917.72;1693513;84;25791;-57
2022/06/20 05:21:27;;;;;;;10.58;2.58;;;;;;;20.32;57.92;100926.81;1709092;82;25541;-57
2022/06/20 05:23:58;;;;;;;10.50;2.47;;;;;;;20.39;57.67;100926.88;1718678;82;25802;-56
2022/06/20 05:26:36;;;;;;;11.25;4.28;;;;;;;20.47;57.55;100926.73;1696114;83;25933;-56
2022/06/20 05:29:07;;;;;;;26.90;3.20;;;;;;;20.53;57.50;100919.63;1716839;81;28475;-56
2022/06/20 05:31:45;;;;;;;16.80;2.75;;;;;;;20.63;57.71;100912.77;1696211;82;26134;-56
2022/06/20 05:34:32;;;;;;;11.03;2.65;;;;;;;20.71;57.35;100915.02;1726755;82;25846;-56
2022/06/20 05:37:36;;;;;;;18.02;2.55;;;;;;;20.78;57.21;100907.22;1726991;81;25941;-57
2022/06/20 05:40:12;;;;;;;10.38;2.52;;;;;;;20.88;56.89;100915.05;1737761;81;25745;-56
2022/06/20 05:42:39;;;;;;;17.85;2.65;;;;;;;21.01;56.46;100912.08;1737246;81;27435;-56
2022/06/20 05:45:19;;;;;;;11.45;2.55;;;;;;;21.11;55.93;100907.92;1746727;81;27194;-56
2022/06/20 05:47:59;;;;;;;17.98;2.75;;;;;;;21.21;55.79;100903.97;1727975;81;25822;-56
2022/06/20 05:50:53;;;;;;;9.28;2.05;;;;;;;21.32;55.21;100902.53;1755291;81;25511;-56
2022/06/20 05:53:28;;;;;;;8.68;1.92;;;;;;;21.42;54.63;100902.48;1745053;80;25780;-56
2022/06/20 05:55:59;;;;;;;8.73;2.47;;;;;;;21.53;53.59;100897.45;1745184;81;27489;-56
2022/06/20 05:58:31;;;;;;;6.65;1.85;;;;;;;21.63;53.12;100898.47;1741636;81;25780;-57
2022/06/20 06:01:03;;;;;;;6.92;1.82;;;;;;;21.74;50.71;100896.47;1739852;81;26027;-57
2022/06/20 06:04:03;;;;;;;9.80;2.10;;;;;;;21.88;50.17;100884.52;1755443;81;25822;-56
2022/06/20 06:06:45;;;;;;;27.55;2.85;;;;;;;22.00;49.77;100884.73;1755597;81;25763;-56
2022/06/20 06:09:58;;;;;;;4.92;1.47;;;;;;;22.13;49.84;100888.54;1755479;81;27524;-56
2022/06/20 06:12:33;;;;;;;11.10;2.90;;;;;;;22.22;48.69;100874.09;1755321;81;25738;-56
2022/06/20 06:15:14;;;;;;;3.30;1.95;;;;;;;22.38;46.71;100876.39;1748394;81;25766;-56
2022/06/20 06:17:50;;;;;;;8.80;1.47;;;;;;;22.48;45.99;100876.84;1753171;81;25745;-56
2022/06/20 06:20:27;;;;;;;5.22;1.60;;;;;;;22.60;45.52;100870.17;1744422;81;25817;-57
2022/06/20 06:22:59;;;;;;;3.92;2.20;;;;;;;22.74;44.94;100872.36;1747033;81;28190;-56
2022/06/20 06:25:34;;;;;;;3.60;1.93;;;;;;;22.87;45.31;100863.79;1744034;81;25837;-56
2022/06/20 06:28:17;;;;;;;7.08;1.62;;;;;;;22.97;44.76;100863.64;1745143;81;26152;-56
2022/06/20 06:31:19;;;;;;;6.08;1.60;;;;;;;23.09;44.29;100858.86;1754516;81;26149;-57
2022/06/20 06:34:14;;;;;;;11.38;1.87;;;;;;;23.18;44.13;100859.44;1755344;81;27393;-56
2022/06/20 06:36:46;;;;;;;14.28;2.02;;;;;;;23.31;43.62;100857.22;1742979;81;28023;-56
2022/06/20 06:39:39;;;;;;;11.70;2.37;;;;;;;23.41;43.39;100862.54;1753827;81;26156;-56
2022/06/20 06:42:10;;;;;;;7.62;1.55;;;;;;;23.49;43.81;100860.59;1724341;81;25727;-57
2022/06/20 06:44:46;;;;;;;7.20;1.70;;;;;;;23.59;43.08;100859.58;1719704;81;25789;-56
2022/06/20 06:47:23;;;;;;;6.05;1.60;;;;;;;23.70;43.00;100860.77;1725561;81;25642;-56
2022/06/20 06:49:54;;;;;;;10.78;1.72;;;;;;;23.81;42.32;100864.70;1722936;82;27350;-56
2022/06/20 06:52:38;;;;;;;6.42;1.57;;;;;;;23.90;42.40;100860.63;1722667;82;26037;-56
2022/06/20 06:55:31;;;;;;;9.35;1.92;;;;;;;23.98;42.70;100861.75;1722915;82;25480;-56
2022/06/20 06:58:15;;;;;;;4.58;1.57;;;;;;;24.07;42.19;100859.58;1730238;81;25832;-57
2022/06/20 07:00:55;;;;;;;5.08;1.87;;;;;;;24.16;41.57;100862.91;1744119;81;25805;-56
2022/06/20 07:03:37;;;;;;;7.35;1.70;;;;;;;24.26;41.25;100865.14;1746528;82;28312;-56
2022/06/20 07:06:25;;;;;;;8.35;1.52;;;;;;;24.36;40.97;100855.30;1747320;81;25769;-56
2022/06/20 07:08:59;;;;;;;5.05;1.60;;;;;;;24.47;40.24;100855.62;1746651;81;25769;-56
2022/06/20 07:11:27;;;;;;;6.25;1.47;;;;;;;24.54;40.43;100850.89;1742077;80;26456;-56
2022/06/20 07:14:15;;;;;;;8.43;1.42;;;;;;;24.63;40.07;100848.16;1732320;81;25868;-56
2022/06/20 07:17:07;;;;;;;4.60;1.37;;;;;;;24.68;40.09;100844.23;1736011;81;27563;-56
2022/06/20 07:19:39;;;;;;;6.95;1.57;;;;;;;24.75;39.31;100843.31;1715365;83;26065;-57
2022/06/20 07:22:05;;;;;;;6.25;1.65;;;;;;;24.80;39.32;100843.45;1719183;83;25703;-57
2022/06/20 07:24:35;;;;;;;7.50;1.30;;;;;;;24.90;39.24;100845.12;1717277;83;25542;-58
2022/06/20 07:27:36;;;;;;;9.93;1.40;;;;;;;24.98;38.89;100845.36;1722266;81;26212;-56
2022/06/20 07:30:19;;;;;;;8.83;1.57;;;;;;;25.06;38.37;100845.56;1723345;82;27483;-56
2022/06/20 07:33:17;;;;;;;6.15;1.37;;;;;;;25.14;38.76;100841.15;1720338;81;32789;-57
2022/06/20 07:35:51;;;;;;;9.68;1.57;;;;;;;25.24;38.64;100834.53;1719624;83;25687;-56
2022/06/20 07:38:39;;;;;;;6.55;1.40;;;;;;;25.30;38.42;100836.38;1723315;82;27678;-56
2022/06/20 07:41:23;;;;;;;5.20;1.25;;;;;;;25.38;38.10;100826.09;1719593;81;25920;-56
2022/06/20 07:44:07;;;;;;;7.08;1.55;;;;;;;25.46;37.60;100828.55;1719332;83;27498;-56
2022/06/20 07:46:54;;;;;;;7.12;1.42;;;;;;;25.51;37.88;100808.57;1726635;82;25803;-56
2022/06/20 07:49:35;;;;;;;12.35;1.40;;;;;;;25.57;37.64;100814.50;1719313;82;25658;-56
2022/06/20 07:52:08;;;;;;;7.35;1.25;;;;;;;25.65;37.67;100812.78;1719356;83;26131;-56
2022/06/20 07:54:43;;;;;;;5.05;1.25;;;;;;;25.71;37.50;100801.36;1715559;83;25736;-56
2022/06/20 07:57:36;;;;;;;5.03;1.27;;;;;;;25.79;37.71;100798.27;1710219;83;27620;-56
2022/06/20 08:00:09;;;;;;;6.58;1.25;;;;;;;25.88;37.85;100791.33;1707745;83;25527;-57
2022/06/20 08:03:02;;;;;;;;;;;;;;;26.04;37.55;100793.92;1715352;82;25779;-57
2022/06/20 08:05:46;;;;;;;12.20;1.52;;;;;;;26.17;36.85;100794.25;1708496;83;25705;-56
2022/06/20 08:08:27;;;;;;;3.35;1.52;;;;;;;26.31;36.54;100800.91;1708170;83;25729;-57
2022/06/20 08:11:03;;;;;;;5.20;1.40;;;;;;;26.39;35.85;100803.30;1707477;83;27498;-56
2022/06/20 08:13:38;;;;;;;9.03;1.35;;;;;;;26.43;36.07;100791.25;1706564;83;25900;-56
2022/06/20 08:16:12;;;;;;;9.73;1.70;;;;;;;26.51;35.98;100786.18;1718482;82;25710;-57
2022/06/20 08:18:41;;;;;;;7.35;1.20;;;;;;;26.64;35.87;100789.77;1726898;82;25856;-57
2022/06/20 08:21:25;;;;;;;9.75;2.45;;;;;;;26.71;35.12;100787.70;1723861;83;25439;-57
2022/06/20 08:24:03;;;;;;;7.37;1.30;;;;;;;26.76;34.62;100785.03;1716916;83;27440;-56
2022/06/20 08:26:41;;;;;;;11.73;1.50;;;;;;;26.84;34.06;100787.47;1711289;83;25459;-57
2022/06/20 08:29:12;;;;;;;10.53;1.60;;;;;;;26.88;34.26;100771.26;1723129;82;25787;-56
2022/06/20 08:31:47;;;;;;;3.05;1.07;;;;;;;26.91;34.00;100767.98;1720483;81;25830;-57
2022/06/20 08:34:34;;;;;;;6.00;1.27;;;;;;;27.05;33.77;100769.91;1721296;81;25774;-57
2022/06/20 08:37:15;;;;;;;5.60;1.40;;;;;;;27.15;33.86;100764.59;1714354;81;27471;-56
2022/06/20 08:40:04;;;;;;;7.70;1.67;;;;;;;27.29;33.50;100764.30;1720094;81;25786;-56
2022/06/20 08:42:48;;;;;;;1.75;0.93;;;;;;;27.41;33.35;100772.52;1752180;81;25473;-56
2022/06/20 08:45:42;;;;;;;3.83;1.20;;;;;;;27.51;33.24;100763.59;1751470;81;25607;-56
2022/06/20 08:48:50;;;;;;;3.27;1.12;;;;;;;27.58;32.88;100765.64;1749835;81;25771;-56
2022/06/20 08:51:39;;;;;;;13.05;1.80;;;;;;;27.67;32.81;100753.64;1742609;81;27433;-56
2022/06/20 08:54:26;;;;;;;7.33;1.70;;;;;;;27.77;32.40;100761.55;1755337;81;25532;-56
2022/06/20 08:57:22;;;;;;;3.83;1.60;;;;;;;27.86;31.94;100751.44;1736640;81;25777;-57
2022/06/20 09:00:18;;;;;;;3.25;1.52;;;;;;;27.97;32.33;100749.13;1746923;81;25754;-57
2022/06/20 09:03:09;;;;;;;7.53;2.85;;;;;;;28.12;32.26;100751.33;1747434;81;25699;-58
2022/06/20 09:05:56;;;;;;;2.40;1.50;;;;;;;28.34;31.94;100747.20;1749710;81;27473;-57
2022/06/20 09:08:29;;;;;;;12.85;1.22;;;;;;;28.51;31.05;100749.07;1755012;81;26419;-57
2022/06/20 09:11:24;;;;;;;5.90;1.23;;;;;;;28.67;30.57;100743.19;1743923;81;25933;-57
2022/06/20 09:14:12;;;;;;;6.83;1.20;;;;;;;28.81;30.32;100763.04;1726161;81;25781;-56
2022/06/20 09:17:05;;;;;;;2.42;1.20;;;;;;;28.97;29.91;100761.26;1721679;81;25807;-57
2022/06/20 09:20:06;;;;;;;3.30;0.90;;;;;;;29.16;29.59;100754.27;1720138;83;27700;-56
2022/06/20 09:23:09;;;;;;;4.65;1.02;;;;;;;29.36;28.43;100753.66;1720542;83;25653;-57
2022/06/20 09:26:15;;;;;;;9.33;1.32;;;;;;;29.51;27.87;100742.44;1721583;83;25810;-57
2022/06/20 09:29:07;;;;;;;9.15;1.27;;;;;;;29.66;28.40;100732.85;1642415;86;25881;-56
2022/06/20 09:32:00;;;;;;;7.30;1.17;;;;;;;29.96;28.66;100733.36;1653036;85;25824;-57
2022/06/20 09:34:59;;;;;;;5.92;1.37;;;;;;;30.27;28.70;100728.82;1638599;87;27878;-57
2022/06/20 09:37:52;;;;;;;5.47;1.65;;;;;;;30.59;28.18;100723.73;1644353;85;25887;-56
2022/06/20 09:40:42;;;;;;;7.28;2.90;;;;;;;30.95;27.84;100715.22;1649997;85;25869;-58
2022/06/20 09:43:46;;;;;;;8.58;1.52;;;;;;;31.34;27.08;100721.13;1668795;85;25903;-56
2022/06/20 09:47:00;;;;;;;3.83;1.10;;;;;;;31.62;26.66;100711.94;1643365;85;26010;-57
2022/06/20 09:49:50;;;;;;;3.25;0.70;;;;;;;31.95;25.25;100724.98;1638615;86;27557;-56
2022/06/20 09:52:35;;;;;;;7.50;0.90;;;;;;;32.11;24.82;100720.77;1638204;87;27322;-56
2022/06/20 09:55:20;;;;;;;5.78;1.00;;;;;;;32.18;25.05;100721.33;1645992;86;25870;-57
2022/06/20 09:58:23;;;;;;;2.47;0.82;;;;;;;32.31;24.56;100717.12;1637559;87;26337;-57
2022/06/20 10:01:08;;;;;;;;;;;;;;;32.45;24.79;100714.00;1720244;83;25781;-57
2022/06/20 10:04:05;;;;;;;;;;;;;;;32.82;25.07;100701.30;1689612;82;27432;-57
2022/06/20 10:06:41;;;;;;;;;;;;;;;33.16;24.15;100704.69;1711563;83;25621;-58
2022/06/20 10:09:14;;;;;;;;;;;;;;;33.53;24.03;100688.78;1701149;83;25450;-57
2022/06/20 10:12:16;;;;;;;;;;;;;;;33.93;24.17;100697.63;1706007;83;26624;-57
2022/06/20 10:15:04;;;;;;;;;;;;;;;34.27;23.75;100684.95;1712042;83;25296;-58
2022/06/20 10:17:49;;;;;;;;;;;;;;;34.71;22.77;100682.97;1708663;82;27536;-57
2022/06/20 10:20:40;;;;;;;;;;;;;;;35.08;22.34;100682.71;1718852;82;25779;-56
2022/06/20 10:23:16;;;;;;;;;;;;;;;35.46;22.07;100683.80;1684968;84;25709;-56
2022/06/20 10:26:19;;;;;;;;;;;;;;;36.10;21.46;100677.58;1690147;84;25680;-57
2022/06/20 10:28:55;;;;;;;;;;;;;;;36.69;21.08;100669.86;1684026;84;25817;-57
2022/06/20 10:31:40;;;;;;;;;;;;;;;37.26;19.63;100670.73;1688501;84;27498;-57
2022/06/20 10:34:16;;;;;;;;;;;;;;;37.48;18.13;100677.52;1702768;83;25813;-57
2022/06/20 10:36:55;;;;;;;;;;;;;;;37.54;18.42;100670.05;1701969;84;25873;-56
2022/06/20 10:39:31;;;;;;;;;;;;;;;38.02;18.05;100676.88;1709937;83;25689;-57
2022/06/20 10:42:05;;;;;;;;;;;;;;;38.21;17.30;100665.35;1711737;83;25732;-57
2022/06/20 10:44:35;;;;;;;;;;;;;;;38.39;18.28;100661.80;1711221;83;27484;-57
2022/06/20 10:47:13;;;;;;;;;;;;;;;38.79;18.36;100652.67;1638344;85;25758;-57
2022/06/20 10:49:59;;;;;;;;;;;;;;;39.18;17.62;100654.19;1666637;85;26245;-56
2022/06/20 10:52:35;;;;;;;;;;;;;;;39.38;15.94;100654.67;1669570;85;25532;-57
2022/06/20 10:55:14;;;;;;;;;;;;;;;39.52;16.94;100650.25;1642937;86;25725;-57
2022/06/20 10:58:05;;;;;;;;;;;;;;;39.86;16.59;100635.80;1672305;85;27635;-57
2022/06/20 11:00:33;;;;;;;;;;;;;;;40.24;15.93;100634.94;1639402;86;26116;-57
2022/06/20 11:03:29;;;;;;;;;;;;;;;40.47;16.28;100615.70;1673679;84;25779;-58
2022/06/20 11:06:08;;;;;;;;;;;;;;;40.65;15.71;100617.00;1702541;83;25726;-57
2022/06/20 11:08:55;;;;;;;;;;;;;;;40.90;15.55;100610.03;1634854;85;43997;-58
2022/06/20 11:11:46;;;;;;;;;;;;;;;40.97;15.28;100599.81;1658403;85;27505;-57
2022/06/20 11:14:22;;;;;;;;;;;;;;;41.27;15.89;100595.45;1659894;85;25707;-57
2022/06/20 11:17:02;;;;;;;;;;;;;;;41.62;14.55;100598.47;1659828;85;25514;-57
2022/06/20 11:19:38;;;;;;;;;;;;;;;41.71;14.28;100579.41;1671012;84;25506;-57
2022/06/20 11:22:20;;;;;;;;;;;;;;;41.71;13.05;100596.34;1659576;86;25765;-56
2022/06/20 11:24:53;;;;;;;;;;;;;;;41.54;13.60;100588.92;1689079;85;26876;-56
2022/06/20 11:27:32;;;;;;;;;;;;;;;41.62;13.88;100584.35;1659473;85;25730;-56
2022/06/20 11:30:11;;;;;;;;;;;;;;;41.83;13.48;100585.63;1660427;85;25809;-57
2022/06/20 11:32:58;;;;;;;;;;;;;;;41.87;13.76;100589.98;1657942;85;25804;-56
2022/06/20 11:35:49;;;;;;;;;;;;;;;41.92;13.06;100573.64;1658850;85;26078;-56
2022/06/20 11:38:29;;;;;;;;;;;;;;;42.03;12.46;100566.09;1692453;84;27550;-56
2022/06/20 11:41:05;;;;;;;;;;;;;;;42.03;12.53;100563.27;1661929;85;26025;-58
2022/06/20 11:43:54;;;;;;;;;;;;;;;42.31;13.03;100559.66;1670560;85;25753;-57
2022/06/20 11:46:24;;;;;;;;;;;;;;;42.48;13.51;100560.80;1678457;85;26346;-56
2022/06/20 11:48:57;;;;;;;;;;;;;;;42.60;12.57;100571.80;1692946;84;25467;-57
2022/06/20 11:51:58;;;;;;;;;;;;;;;42.26;12.93;100562.72;1672907;84;27614;-57
2022/06/20 11:54:50;;;;;;;;;;;;;;;42.08;12.42;100551.14;1696409;83;26133;-57
2022/06/20 11:57:35;;;;;;;;;;;;;;;42.11;12.43;100547.34;1696760;84;25948;-57
2022/06/20 12:00:22;;;;;;;;;;;;;;;42.08;12.88;100546.05;1696674;84;25780;-57
2022/06/20 12:02:55;;;;;;;;;;;;;;;42.11;13.07;100548.17;1697147;84;25622;-57
2022/06/20 12:05:31;;;;;;;;;;;;;;;42.28;12.85;100544.83;1696887;84;27724;-57
2022/06/20 12:08:18;;;;;;;;;;;;;;;42.60;12.59;100542.11;1696960;84;25859;-56
2022/06/20 12:10:51;;;;;;;;;;;;;;;43.04;12.35;100537.88;1697102;84;25892;-57
2022/06/20 12:13:49;;;;;;;;;;;;;;;43.30;12.73;100534.53;1696614;84;25779;-58
2022/06/20 12:16:54;;;;;;;;;;;;;;;43.69;12.18;100531.03;1696927;84;25811;-57
2022/06/20 12:25:37;;;;;;;;;;;;;;;44.38;11.31;100524.02;1697059;84;25764;-56
2022/06/20 12:28:29;;;;;;;;;;;;;;;44.35;10.61;100523.34;1696794;83;27644;-56
2022/06/20 12:31:11;;;;;;;;;;;;;;;44.43;11.18;100504.50;1695230;84;25978;-58
2022/06/20 12:33:50;;;;;;;;;;;;;;;44.43;11.24;100507.34;1697151;84;27488;-58
2022/06/20 12:36:23;;;;;;;;;;;;;;;44.53;11.39;100506.12;1697001;84;26292;-57
2022/06/20 12:39:11;;;;;;;;;;;;;;;44.69;11.25;100507.44;1696894;84;25751;-58
2022/06/20 12:41:42;;;;;;;;;;;;;;;44.71;11.06;100495.70;1665051;84;25891;-57
2022/06/20 12:44:29;;;;;;;;;;;;;;;44.80;11.35;100496.30;1640819;86;25861;-58
2022/06/20 12:47:08;;;;;;;;;;;;;;;45.02;11.17;100482.50;1649865;85;27551;-57
2022/06/20 12:49:50;;;;;;;;;;;;;;;45.33;10.93;100492.76;1635315;85;25999;-57
2022/06/20 12:52:30;;;;;;;;;;;;;;;45.47;10.82;100491.33;1662260;85;25692;-58